< < Back
Terminal Aerodrome Forecast


Current Version              Previous Versions:   1  2  3  4  5  6  7  8  9  

Terminal Aerodrome Forecast

234
FTUS42 KCAE 051738
TAFAGS
TAF
KAGS 051738Z 0518/0618 23009KT P6SM SCT040 SCT100
     FM052000 24011G20KT P6SM VCSH SCT040 BKN120
     FM060000 21008KT P6SM VCSH SCT040 BKN100
     FM060200 VRB03KT P6SM BKN250
     FM061400 25007KT P6SM SCT250=

Latest METAR

709
SAUS70 KWBC 060000 RRF
MTRAGS
METAR KAGS 052353Z 19011KT 10SM SCT080 26/21 A3007 RMK AO2 SLP182 60003
T02560206 10328 20256 53005


USA.gov is the U.S. government's official web portal to all federal, state and local government web resources and services.